createdAt,value
2023-03-27T00:00:18.025Z,0.00
2023-03-27T00:01:18.016Z,0.00
2023-03-27T00:02:17.989Z,0.00
2023-03-27T00:03:18.028Z,0.00
2023-03-27T00:04:18.665Z,0.00
2023-03-27T00:05:17.923Z,0.00
2023-03-27T00:06:17.937Z,0.00
2023-03-27T00:07:17.906Z,0.00
2023-03-27T00:08:17.909Z,0.00
2023-03-27T00:09:17.862Z,0.00
2023-03-27T00:10:17.876Z,0.00
2023-03-27T00:11:17.840Z,0.00
2023-03-27T00:12:17.877Z,0.00
2023-03-27T00:13:17.847Z,0.00
2023-03-27T00:14:17.843Z,0.00
2023-03-27T00:15:17.866Z,0.00
2023-03-27T00:16:17.836Z,0.00
2023-03-27T00:17:17.810Z,0.00
2023-03-27T00:18:17.778Z,0.00
2023-03-27T00:19:17.787Z,0.00
2023-03-27T00:20:17.735Z,0.00
2023-03-27T00:21:17.786Z,0.00
2023-03-27T00:22:17.744Z,0.00
2023-03-27T00:23:17.713Z,0.00
2023-03-27T00:24:17.735Z,0.00
2023-03-27T00:25:17.696Z,0.00
2023-03-27T00:26:17.686Z,0.00
2023-03-27T00:27:17.676Z,0.00
2023-03-27T00:28:17.681Z,0.00
2023-03-27T00:29:17.638Z,0.00
2023-03-27T00:30:17.684Z,0.00
2023-03-27T00:31:17.664Z,0.00
2023-03-27T00:32:17.603Z,0.00
2023-03-27T00:33:17.597Z,0.00
2023-03-27T00:34:17.592Z,0.00
2023-03-27T00:35:17.612Z,0.00
2023-03-27T00:36:17.587Z,0.00
2023-03-27T00:37:17.546Z,0.00
2023-03-27T00:38:17.547Z,0.00
2023-03-27T00:39:17.544Z,0.00
2023-03-27T00:40:17.497Z,0.00
2023-03-27T00:41:17.606Z,0.00
2023-03-27T00:42:17.495Z,0.00
2023-03-27T00:43:17.483Z,0.00
2023-03-27T00:44:17.479Z,0.00
2023-03-27T00:45:17.441Z,0.00
2023-03-27T00:46:17.512Z,0.00
2023-03-27T00:47:17.410Z,0.00
2023-03-27T00:48:17.405Z,0.00
2023-03-27T00:49:17.446Z,0.00
2023-03-27T00:50:17.407Z,0.00
2023-03-27T00:51:17.447Z,0.00
2023-03-27T00:52:17.358Z,0.00
2023-03-27T00:53:17.365Z,0.00
2023-03-27T00:54:17.333Z,0.00
2023-03-27T00:55:17.393Z,0.00
2023-03-27T00:56:17.309Z,0.00
2023-03-27T00:57:17.418Z,0.00
2023-03-27T00:58:17.304Z,0.00
2023-03-27T00:59:17.290Z,0.00
2023-03-27T01:00:17.299Z,0.00
2023-03-27T01:01:17.304Z,0.00
2023-03-27T01:02:17.270Z,0.00
2023-03-27T01:03:17.338Z,0.00
2023-03-27T01:04:17.241Z,0.00
2023-03-27T01:05:17.237Z,0.00
2023-03-27T01:06:17.329Z,0.00
2023-03-27T01:07:17.198Z,0.00
2023-03-27T01:08:17.197Z,0.00
2023-03-27T01:09:20.501Z,0.00
2023-03-27T01:10:17.166Z,0.00
2023-03-27T01:11:17.141Z,0.00
2023-03-27T01:12:17.109Z,0.00
2023-03-27T01:13:17.182Z,0.00
2023-03-27T01:14:17.105Z,0.00
2023-03-27T01:15:17.080Z,0.00
2023-03-27T01:16:17.124Z,0.00
2023-03-27T01:17:17.081Z,0.00
2023-03-27T01:18:17.096Z,0.00
2023-03-27T01:19:17.050Z,0.00
2023-03-27T01:20:17.030Z,0.00
2023-03-27T01:21:17.023Z,0.00
2023-03-27T01:22:17.035Z,0.00
2023-03-27T01:23:16.999Z,0.00
2023-03-27T01:24:18.016Z,0.00
2023-03-27T01:25:16.976Z,0.00
2023-03-27T01:26:16.949Z,0.00
2023-03-27T01:27:17.950Z,0.00
2023-03-27T01:28:16.939Z,0.00
2023-03-27T01:29:16.956Z,0.00
2023-03-27T01:30:16.951Z,0.00
2023-03-27T01:31:16.933Z,0.00
2023-03-27T01:32:16.893Z,0.00
2023-03-27T01:33:16.894Z,0.00
2023-03-27T01:34:16.899Z,0.00
2023-03-27T01:35:16.909Z,0.00
2023-03-27T01:36:16.841Z,0.00
2023-03-27T01:37:16.877Z,0.00
2023-03-27T01:38:16.837Z,0.00
2023-03-27T01:39:16.812Z,0.00
2023-03-27T01:40:16.787Z,0.00
2023-03-27T01:41:16.768Z,0.00
2023-03-27T01:42:16.786Z,0.00
2023-03-27T01:43:16.786Z,0.00
2023-03-27T01:44:16.753Z,0.00
2023-03-27T01:45:16.774Z,0.00
2023-03-27T01:46:16.758Z,0.00
2023-03-27T01:47:16.724Z,0.00
2023-03-27T01:48:16.747Z,0.00
2023-03-27T01:49:16.737Z,0.00
2023-03-27T01:50:16.673Z,0.00
2023-03-27T01:51:16.654Z,0.00
2023-03-27T01:52:16.664Z,0.00
2023-03-27T01:53:16.666Z,0.00
2023-03-27T01:54:16.651Z,0.00
2023-03-27T01:55:16.662Z,0.00
2023-03-27T01:56:16.644Z,0.00
2023-03-27T01:57:16.610Z,0.00
2023-03-27T01:58:16.589Z,0.00
2023-03-27T01:59:16.595Z,0.00
2023-03-27T02:00:18.782Z,0.00
2023-03-27T02:01:16.613Z,0.00
2023-03-27T02:02:16.541Z,0.00
2023-03-27T02:03:16.527Z,0.00
2023-03-27T02:04:16.515Z,0.00
2023-03-27T02:05:16.538Z,0.00
2023-03-27T02:06:16.515Z,0.00
2023-03-27T02:07:16.470Z,0.00
2023-03-27T02:08:16.488Z,0.00
2023-03-27T02:09:16.450Z,0.00
2023-03-27T02:10:16.463Z,0.00
2023-03-27T02:11:16.457Z,0.00
2023-03-27T02:12:16.425Z,0.00
2023-03-27T02:13:16.433Z,0.00
2023-03-27T02:14:16.389Z,0.00
2023-03-27T02:15:24.548Z,0.00
2023-03-27T02:16:17.493Z,0.00
2023-03-27T02:17:16.374Z,0.00
2023-03-27T02:18:16.341Z,0.00
2023-03-27T02:19:16.340Z,0.00
2023-03-27T02:20:16.329Z,0.00
2023-03-27T02:21:16.346Z,0.00
2023-03-27T02:22:16.359Z,0.00
2023-03-27T02:23:16.279Z,0.00
2023-03-27T02:24:16.281Z,0.00
2023-03-27T02:25:16.271Z,0.00
2023-03-27T02:26:16.273Z,0.00
2023-03-27T02:27:16.244Z,0.00
2023-03-27T02:28:16.294Z,0.00
2023-03-27T02:29:16.210Z,0.00
2023-03-27T02:30:16.198Z,0.00
2023-03-27T02:31:32.969Z,0.00
2023-03-27T02:32:17.227Z,0.00
2023-03-27T02:33:16.244Z,0.00
2023-03-27T02:34:16.201Z,0.00
2023-03-27T02:35:16.145Z,0.00
2023-03-27T02:36:16.136Z,0.00
2023-03-27T02:37:16.164Z,0.00
2023-03-27T02:38:16.119Z,0.00
2023-03-27T02:39:16.130Z,0.00
2023-03-27T02:40:16.105Z,0.00
2023-03-27T02:41:16.097Z,0.00
2023-03-27T02:42:16.072Z,0.00
2023-03-27T02:43:16.051Z,0.00
2023-03-27T02:44:16.054Z,0.00
2023-03-27T02:45:16.044Z,0.00
2023-03-27T02:46:16.143Z,0.00
2023-03-27T02:47:16.007Z,0.00
2023-03-27T02:48:15.997Z,0.00
2023-03-27T02:49:16.074Z,0.00
2023-03-27T02:50:15.981Z,0.00
2023-03-27T02:51:15.959Z,0.00
2023-03-27T02:52:15.954Z,0.00
2023-03-27T02:53:15.955Z,0.00
2023-03-27T02:54:15.932Z,0.00
2023-03-27T02:55:15.957Z,0.00
2023-03-27T02:56:15.911Z,0.00
2023-03-27T02:57:15.951Z,0.00
2023-03-27T02:58:15.891Z,0.00
2023-03-27T02:59:15.872Z,0.00
2023-03-27T03:00:15.864Z,0.00
2023-03-27T03:01:15.916Z,0.00
2023-03-27T03:02:15.877Z,0.00
2023-03-27T03:03:15.920Z,0.00
2023-03-27T03:04:15.805Z,0.00
2023-03-27T03:05:15.795Z,0.00
2023-03-27T03:06:15.824Z,0.00
2023-03-27T03:07:15.791Z,0.00
2023-03-27T03:08:15.791Z,0.00
2023-03-27T03:09:15.756Z,0.00
2023-03-27T03:10:15.761Z,0.00
2023-03-27T03:11:15.808Z,0.00
2023-03-27T03:12:15.721Z,0.00
2023-03-27T03:13:15.739Z,0.00
2023-03-27T03:14:15.690Z,0.00
2023-03-27T03:15:15.699Z,0.00
2023-03-27T03:16:15.754Z,0.00
2023-03-27T03:17:15.689Z,0.00
2023-03-27T03:18:15.686Z,0.00
2023-03-27T03:19:15.672Z,0.00
2023-03-27T03:20:15.646Z,0.00
2023-03-27T03:21:15.619Z,0.00
2023-03-27T03:22:15.616Z,0.00
2023-03-27T03:23:15.624Z,0.00
2023-03-27T03:24:15.604Z,0.00
2023-03-27T03:25:15.589Z,0.00
2023-03-27T03:26:15.569Z,0.00
2023-03-27T03:27:15.564Z,0.00
2023-03-27T03:28:15.556Z,0.00
2023-03-27T03:29:15.572Z,0.00
2023-03-27T03:30:17.125Z,0.00
2023-03-27T03:31:15.545Z,0.00
2023-03-27T03:32:15.539Z,0.00
2023-03-27T03:33:15.484Z,0.00
2023-03-27T03:34:15.523Z,0.00
2023-03-27T03:35:15.480Z,0.00
2023-03-27T03:36:15.480Z,0.00
2023-03-27T03:37:15.429Z,0.00
2023-03-27T03:38:15.413Z,0.00
2023-03-27T03:39:15.441Z,0.00
2023-03-27T03:40:15.449Z,0.00
2023-03-27T03:41:15.400Z,0.00
2023-03-27T03:42:22.823Z,0.00
2023-03-27T03:43:16.375Z,0.00
2023-03-27T03:44:15.382Z,0.00
2023-03-27T03:45:15.362Z,0.00
2023-03-27T03:46:15.443Z,0.00
2023-03-27T03:47:15.361Z,0.00
2023-03-27T03:48:15.319Z,0.00
2023-03-27T03:49:15.294Z,0.00
2023-03-27T03:50:15.366Z,0.00
2023-03-27T03:51:15.284Z,0.00
2023-03-27T03:52:15.368Z,0.00
2023-03-27T03:53:15.243Z,0.00
2023-03-27T03:54:15.263Z,0.00
2023-03-27T03:55:15.250Z,0.00
2023-03-27T03:56:15.286Z,0.00
2023-03-27T03:57:15.488Z,0.00
2023-03-27T03:58:15.201Z,0.00
2023-03-27T03:59:15.195Z,0.00
2023-03-27T04:00:15.208Z,0.00
2023-03-27T04:01:15.144Z,0.00
2023-03-27T04:02:15.171Z,0.00
2023-03-27T04:03:15.257Z,0.00
2023-03-27T04:04:15.154Z,0.00
2023-03-27T04:05:15.178Z,0.00
2023-03-27T04:06:15.093Z,0.00
2023-03-27T04:07:16.094Z,0.00
2023-03-27T04:08:15.077Z,0.00
2023-03-27T04:09:15.106Z,0.00
2023-03-27T04:10:15.047Z,0.00
2023-03-27T04:11:15.089Z,0.00
2023-03-27T04:12:15.035Z,0.00
2023-03-27T04:13:15.013Z,0.00
2023-03-27T04:14:15.025Z,0.00
2023-03-27T04:15:15.003Z,0.00
2023-03-27T04:16:15.078Z,0.00
2023-03-27T04:17:14.973Z,0.00
2023-03-27T04:18:15.295Z,0.00
2023-03-27T04:19:14.944Z,0.00
2023-03-27T04:20:14.953Z,0.00
2023-03-27T04:21:15.096Z,0.00
2023-03-27T04:22:14.916Z,0.00
2023-03-27T04:23:14.905Z,0.00
2023-03-27T04:24:14.901Z,0.00
2023-03-27T04:25:14.931Z,0.00
2023-03-27T04:26:14.930Z,0.00
2023-03-27T04:27:14.900Z,0.00
2023-03-27T04:28:14.863Z,0.00
2023-03-27T04:29:14.871Z,0.00
2023-03-27T04:30:14.853Z,0.00
2023-03-27T04:31:14.878Z,0.00
2023-03-27T04:32:14.876Z,0.00
2023-03-27T04:33:14.803Z,0.00
2023-03-27T04:34:14.788Z,0.00
2023-03-27T04:35:14.818Z,0.00
2023-03-27T04:36:14.841Z,0.00
2023-03-27T04:37:14.787Z,0.00
2023-03-27T04:38:14.763Z,0.00
2023-03-27T04:39:14.723Z,0.00
2023-03-27T04:40:14.780Z,0.00
2023-03-27T04:41:14.725Z,0.00
2023-03-27T04:42:14.739Z,0.00
2023-03-27T04:43:14.754Z,0.00
2023-03-27T04:44:14.688Z,0.00
2023-03-27T04:45:14.806Z,0.00
2023-03-27T04:46:14.722Z,0.00
2023-03-27T04:47:14.699Z,0.00
2023-03-27T04:48:14.795Z,0.00
2023-03-27T04:49:14.649Z,0.00
2023-03-27T04:50:14.610Z,0.00
2023-03-27T04:51:14.618Z,0.00
2023-03-27T04:52:14.690Z,0.00
2023-03-27T04:53:14.621Z,0.00
2023-03-27T04:54:14.567Z,0.00
2023-03-27T04:55:14.575Z,5.62
2023-03-27T04:56:14.536Z,5.62
2023-03-27T04:57:14.750Z,5.62
2023-03-27T04:58:14.577Z,5.62
2023-03-27T04:59:14.543Z,5.62
2023-03-27T05:00:14.513Z,5.62
2023-03-27T05:01:14.530Z,5.62
2023-03-27T05:02:14.528Z,5.62
2023-03-27T05:03:14.584Z,11.25
2023-03-27T05:04:14.507Z,11.25
2023-03-27T05:05:14.476Z,11.25
2023-03-27T05:06:14.511Z,16.88
2023-03-27T05:07:14.449Z,16.88
2023-03-27T05:08:14.425Z,16.88
2023-03-27T05:09:14.394Z,22.50
2023-03-27T05:10:14.412Z,22.50
2023-03-27T05:11:14.393Z,28.12
2023-03-27T05:12:14.394Z,28.12
2023-03-27T05:13:14.359Z,33.75
2023-03-27T05:14:14.361Z,33.75
2023-03-27T05:15:14.330Z,33.75
2023-03-27T05:16:14.454Z,39.38
2023-03-27T05:17:14.316Z,39.38
2023-03-27T05:18:14.287Z,39.38
2023-03-27T05:19:14.321Z,39.38
2023-03-27T05:20:14.272Z,45.00
2023-03-27T05:21:14.278Z,45.00
2023-03-27T05:22:14.257Z,45.00
2023-03-27T05:23:14.261Z,45.00
2023-03-27T05:24:14.256Z,50.62
2023-03-27T05:25:14.223Z,50.62
2023-03-27T05:26:14.215Z,50.62
2023-03-27T05:27:14.251Z,50.62
2023-03-27T05:28:14.200Z,56.25
2023-03-27T05:29:14.216Z,56.25
2023-03-27T05:30:14.169Z,56.25
2023-03-27T05:31:14.222Z,61.88
2023-03-27T05:32:14.196Z,61.88
2023-03-27T05:33:14.163Z,67.50
2023-03-27T05:34:14.143Z,67.50
2023-03-27T05:35:14.110Z,67.50
2023-03-27T05:36:14.130Z,73.12
2023-03-27T05:37:14.118Z,73.12
2023-03-27T05:38:14.082Z,78.75
2023-03-27T05:39:14.058Z,78.75
2023-03-27T05:40:14.079Z,84.38
2023-03-27T05:41:14.087Z,90.00
2023-03-27T05:42:14.045Z,95.62
2023-03-27T05:43:14.062Z,101.25
2023-03-27T05:44:14.010Z,101.25
2023-03-27T05:45:14.019Z,101.25
2023-03-27T05:46:14.024Z,101.25
2023-03-27T05:47:15.010Z,106.88
2023-03-27T05:48:14.034Z,112.50
2023-03-27T05:49:13.941Z,123.75
2023-03-27T05:50:13.941Z,123.75
2023-03-27T05:51:13.950Z,123.75
2023-03-27T05:52:13.965Z,129.38
2023-03-27T05:53:13.987Z,129.38
2023-03-27T05:54:13.917Z,129.38
2023-03-27T05:55:13.887Z,140.62
2023-03-27T05:56:13.883Z,163.12
2023-03-27T05:57:13.893Z,219.38
2023-03-27T05:58:13.853Z,230.62
2023-03-27T05:59:13.901Z,213.75
2023-03-27T06:00:13.928Z,180.00
2023-03-27T06:01:13.821Z,157.50
2023-03-27T06:02:13.857Z,151.88
2023-03-27T06:03:13.989Z,140.62
2023-03-27T06:04:13.849Z,140.62
2023-03-27T06:05:13.764Z,146.25
2023-03-27T06:06:13.778Z,157.50
2023-03-27T06:07:13.768Z,163.12
2023-03-27T06:08:13.826Z,163.12
2023-03-27T06:09:13.753Z,174.38
2023-03-27T06:10:14.340Z,174.38
2023-03-27T06:11:13.706Z,168.75
2023-03-27T06:12:13.934Z,168.75
2023-03-27T06:13:13.836Z,174.38
2023-03-27T06:14:13.662Z,180.00
2023-03-27T06:15:13.689Z,180.00
2023-03-27T06:16:13.741Z,180.00
2023-03-27T06:17:13.686Z,180.00
2023-03-27T06:18:13.604Z,163.12
2023-03-27T06:19:13.670Z,168.75
2023-03-27T06:20:13.605Z,168.75
2023-03-27T06:21:13.574Z,180.00
2023-03-27T06:22:13.573Z,191.25
2023-03-27T06:23:13.609Z,208.12
2023-03-27T06:24:13.581Z,208.12
2023-03-27T06:25:13.566Z,213.75
2023-03-27T06:26:13.540Z,219.38
2023-03-27T06:27:13.547Z,225.00
2023-03-27T06:28:13.543Z,225.00
2023-03-27T06:29:13.538Z,230.62
2023-03-27T06:30:13.557Z,230.62
2023-03-27T06:31:13.535Z,230.62
2023-03-27T06:32:13.448Z,236.25
2023-03-27T06:33:13.579Z,230.62
2023-03-27T06:34:13.500Z,230.62
2023-03-27T06:35:13.464Z,225.00
2023-03-27T06:36:13.521Z,225.00
2023-03-27T06:37:13.428Z,219.38
2023-03-27T06:38:13.415Z,219.38
2023-03-27T06:39:13.500Z,219.38
2023-03-27T06:40:13.433Z,219.38
2023-03-27T06:41:13.366Z,213.75
2023-03-27T06:42:13.624Z,219.38
2023-03-27T06:43:13.352Z,213.75
2023-03-27T06:44:13.348Z,208.12
2023-03-27T06:45:13.326Z,208.12
2023-03-27T06:46:13.307Z,219.38
2023-03-27T06:47:13.328Z,219.38
2023-03-27T06:48:20.848Z,225.00
2023-03-27T06:49:14.302Z,225.00
2023-03-27T06:50:13.299Z,225.00
2023-03-27T06:51:13.244Z,225.00
2023-03-27T06:52:13.253Z,236.25
2023-03-27T06:53:25.800Z,241.88
2023-03-27T06:54:14.479Z,253.12
2023-03-27T06:55:14.981Z,253.12
2023-03-27T06:56:13.436Z,270.00
2023-03-27T06:57:13.226Z,298.12
2023-03-27T06:58:13.156Z,371.25
2023-03-27T06:59:13.171Z,528.75
2023-03-27T07:00:13.168Z,686.25
2023-03-27T07:01:13.177Z,691.88
2023-03-27T07:02:13.269Z,585.00
2023-03-27T07:03:13.098Z,534.38
2023-03-27T07:04:13.109Z,540.00
2023-03-27T07:05:13.149Z,585.00
2023-03-27T07:06:13.098Z,624.38
2023-03-27T07:07:13.061Z,573.75
2023-03-27T07:08:22.639Z,540.00
2023-03-27T07:09:14.092Z,500.62
2023-03-27T07:10:13.027Z,478.12
2023-03-27T07:11:13.121Z,506.25
2023-03-27T07:12:13.028Z,478.12
2023-03-27T07:13:13.066Z,450.00
2023-03-27T07:14:13.082Z,421.88
2023-03-27T07:15:12.994Z,360.00
2023-03-27T07:16:13.008Z,320.62
2023-03-27T07:17:12.984Z,298.12
2023-03-27T07:18:12.944Z,360.00
2023-03-27T07:19:12.958Z,427.50
2023-03-27T07:20:12.898Z,416.25
2023-03-27T07:21:12.966Z,585.00
2023-03-27T07:22:12.894Z,742.50
2023-03-27T07:23:12.856Z,675.00
2023-03-27T07:24:12.878Z,528.75
2023-03-27T07:25:12.846Z,466.88
2023-03-27T07:26:12.869Z,450.00
2023-03-27T07:27:12.853Z,461.25
2023-03-27T07:28:12.841Z,421.88
2023-03-27T07:29:12.794Z,427.50
2023-03-27T07:30:12.782Z,427.50
2023-03-27T07:31:29.267Z,438.75
2023-03-27T07:32:19.362Z,450.00
2023-03-27T07:33:13.818Z,455.62
2023-03-27T07:34:12.896Z,461.25
2023-03-27T07:35:12.764Z,472.50
2023-03-27T07:36:12.792Z,489.38
2023-03-27T07:37:12.731Z,506.25
2023-03-27T07:38:12.728Z,540.00
2023-03-27T07:39:12.693Z,573.75
2023-03-27T07:40:12.717Z,596.25
2023-03-27T07:41:12.679Z,658.12
2023-03-27T07:42:12.702Z,1080.00
2023-03-27T07:43:12.677Z,1546.88
2023-03-27T07:44:12.676Z,1231.88
2023-03-27T07:45:12.651Z,776.25
2023-03-27T07:46:12.733Z,1006.88
2023-03-27T07:47:12.629Z,1203.75
2023-03-27T07:48:12.592Z,1389.38
2023-03-27T07:49:12.571Z,1620.00
2023-03-27T07:50:12.609Z,1726.88
2023-03-27T07:51:14.237Z,1535.62
2023-03-27T07:52:13.762Z,1338.75
2023-03-27T07:53:33.544Z,2525.62
2023-03-27T07:54:13.566Z,1738.12
2023-03-27T07:55:12.537Z,1085.62
2023-03-27T07:56:12.518Z,1046.25
2023-03-27T07:57:12.537Z,1164.38
2023-03-27T07:58:12.580Z,1226.25
2023-03-27T07:59:12.509Z,950.62
2023-03-27T08:00:12.483Z,635.62
2023-03-27T08:01:12.435Z,1783.12
2023-03-27T08:02:12.461Z,691.88
2023-03-27T08:03:12.560Z,736.88
2023-03-27T08:04:12.450Z,686.25
2023-03-27T08:05:12.443Z,607.50
2023-03-27T08:06:12.500Z,607.50
2023-03-27T08:07:12.350Z,562.50
2023-03-27T08:08:12.409Z,556.88
2023-03-27T08:09:12.367Z,607.50
2023-03-27T08:10:12.374Z,826.88
2023-03-27T08:11:23.303Z,652.50
2023-03-27T08:12:13.323Z,466.88
2023-03-27T08:13:12.365Z,376.88
2023-03-27T08:14:12.284Z,388.12
2023-03-27T08:15:12.281Z,433.12
2023-03-27T08:16:12.290Z,787.50
2023-03-27T08:17:16.183Z,2941.88
2023-03-27T08:18:13.301Z,1147.50
2023-03-27T08:19:12.264Z,787.50
2023-03-27T08:20:12.218Z,607.50
2023-03-27T08:21:12.265Z,630.00
2023-03-27T08:22:12.214Z,1631.25
2023-03-27T08:23:12.178Z,933.75
2023-03-27T08:24:12.183Z,736.88
2023-03-27T08:25:12.180Z,810.00
2023-03-27T08:26:12.137Z,1406.25
2023-03-27T08:27:12.192Z,984.38
2023-03-27T08:28:12.161Z,798.75
2023-03-27T08:29:12.111Z,776.25
2023-03-27T08:30:12.101Z,990.00
2023-03-27T08:31:12.224Z,866.25
2023-03-27T08:32:12.102Z,691.88
2023-03-27T08:33:12.088Z,376.88
2023-03-27T08:34:12.045Z,315.00
2023-03-27T08:35:12.205Z,258.75
2023-03-27T08:36:12.111Z,253.12
2023-03-27T08:37:12.075Z,315.00
2023-03-27T08:38:23.793Z,337.50
2023-03-27T08:39:12.999Z,337.50
2023-03-27T08:40:11.990Z,388.12
2023-03-27T08:41:12.000Z,450.00
2023-03-27T08:42:12.020Z,416.25
2023-03-27T08:43:11.972Z,466.88
2023-03-27T08:44:11.978Z,478.12
2023-03-27T08:45:11.957Z,444.38
2023-03-27T08:46:11.967Z,506.25
2023-03-27T08:47:11.937Z,573.75
2023-03-27T08:48:12.174Z,3661.88
2023-03-27T08:49:11.912Z,3296.25
2023-03-27T08:50:11.892Z,3138.75
2023-03-27T08:51:11.896Z,2559.38
2023-03-27T08:52:11.858Z,3633.75
2023-03-27T08:53:11.876Z,3673.12
2023-03-27T08:54:12.343Z,3650.62
2023-03-27T08:55:13.163Z,652.50
2023-03-27T08:56:12.255Z,714.38
2023-03-27T08:57:12.067Z,928.12
2023-03-27T08:58:12.928Z,4016.25
2023-03-27T08:59:12.496Z,1203.75
2023-03-27T09:00:11.782Z,3971.25
2023-03-27T09:01:11.830Z,3909.38
2023-03-27T09:02:11.809Z,3864.38
2023-03-27T09:03:11.837Z,3515.62
2023-03-27T09:04:11.745Z,3363.75
2023-03-27T09:05:11.715Z,2610.00
2023-03-27T09:06:11.776Z,787.50
2023-03-27T09:07:11.720Z,1316.25
2023-03-27T09:08:11.687Z,1186.88
2023-03-27T09:09:11.685Z,686.25
2023-03-27T09:10:11.650Z,3346.88
2023-03-27T09:11:11.728Z,1209.38
2023-03-27T09:12:11.650Z,3954.38
2023-03-27T09:13:11.652Z,4156.88
2023-03-27T09:14:11.604Z,866.25
2023-03-27T09:15:11.648Z,2649.38
2023-03-27T09:16:11.615Z,551.25
2023-03-27T09:17:11.641Z,500.62
2023-03-27T09:18:11.576Z,596.25
2023-03-27T09:19:11.553Z,770.62
2023-03-27T09:20:11.566Z,1029.38
2023-03-27T09:21:11.550Z,613.12
2023-03-27T09:22:11.523Z,691.88
2023-03-27T09:23:11.523Z,928.12
2023-03-27T09:24:11.507Z,2829.38
2023-03-27T09:25:11.525Z,978.75
2023-03-27T09:26:11.508Z,1299.38
2023-03-27T09:27:11.473Z,2536.88
2023-03-27T09:28:11.449Z,1063.12
2023-03-27T09:29:11.475Z,1141.88
2023-03-27T09:30:18.096Z,1125.00
2023-03-27T09:31:11.489Z,1057.50
2023-03-27T09:32:11.453Z,826.88
2023-03-27T09:33:11.744Z,3335.62
2023-03-27T09:34:11.375Z,928.12
2023-03-27T09:35:11.376Z,1023.75
2023-03-27T09:36:11.761Z,1260.00
2023-03-27T09:37:11.358Z,1029.38
2023-03-27T09:38:11.377Z,1074.38
2023-03-27T09:39:11.409Z,1074.38
2023-03-27T09:40:11.321Z,984.38
2023-03-27T09:41:11.320Z,736.88
2023-03-27T09:42:11.301Z,455.62
2023-03-27T09:43:14.301Z,309.38
2023-03-27T09:44:11.303Z,286.88
2023-03-27T09:45:11.604Z,270.00
2023-03-27T09:46:11.240Z,264.38
2023-03-27T09:47:11.275Z,315.00
2023-03-27T09:48:11.282Z,365.62
2023-03-27T09:49:12.270Z,405.00
2023-03-27T09:50:11.187Z,433.12
2023-03-27T09:51:11.212Z,472.50
2023-03-27T09:52:11.225Z,540.00
2023-03-27T09:53:11.192Z,590.62
2023-03-27T09:54:11.146Z,635.62
2023-03-27T09:55:11.165Z,1074.38
2023-03-27T09:56:11.116Z,888.75
2023-03-27T09:57:11.269Z,2216.25
2023-03-27T09:58:11.211Z,2801.25
2023-03-27T09:59:11.085Z,652.50
2023-03-27T10:00:11.426Z,866.25
2023-03-27T10:01:11.118Z,1220.62
2023-03-27T10:02:11.080Z,832.50
2023-03-27T10:03:11.149Z,1777.50
2023-03-27T10:04:11.062Z,1721.25
2023-03-27T10:05:11.062Z,3723.75
2023-03-27T10:06:11.079Z,3605.62
2023-03-27T10:07:11.002Z,3234.38
2023-03-27T10:08:11.053Z,2823.75
2023-03-27T10:09:11.031Z,2660.62
2023-03-27T10:10:10.981Z,2874.38
2023-03-27T10:11:10.956Z,3425.62
2023-03-27T10:12:11.027Z,3808.12
2023-03-27T10:13:10.965Z,1620.00
2023-03-27T10:14:11.003Z,3661.88
2023-03-27T10:15:10.922Z,1125.00
2023-03-27T10:16:10.962Z,1788.75
2023-03-27T10:17:10.943Z,4246.88
2023-03-27T10:18:10.977Z,4213.12
2023-03-27T10:19:10.912Z,916.88
2023-03-27T10:20:10.863Z,635.62
2023-03-27T10:21:10.846Z,438.75
2023-03-27T10:22:14.156Z,382.50
2023-03-27T10:23:10.873Z,360.00
2023-03-27T10:24:10.857Z,365.62
2023-03-27T10:25:10.809Z,427.50
2023-03-27T10:26:10.827Z,455.62
2023-03-27T10:27:10.779Z,495.00
2023-03-27T10:28:10.834Z,607.50
2023-03-27T10:29:10.781Z,781.88
2023-03-27T10:30:10.785Z,1029.38
2023-03-27T10:31:11.743Z,2407.50
2023-03-27T10:32:10.870Z,4325.62
2023-03-27T10:33:10.780Z,3678.75
2023-03-27T10:34:10.727Z,956.25
2023-03-27T10:35:10.740Z,652.50
2023-03-27T10:36:10.724Z,607.50
2023-03-27T10:37:10.686Z,635.62
2023-03-27T10:38:10.704Z,748.12
2023-03-27T10:39:10.714Z,922.50
2023-03-27T10:40:10.645Z,1530.00
2023-03-27T10:41:10.640Z,2081.25
2023-03-27T10:42:10.637Z,1091.25
2023-03-27T10:43:12.640Z,1440.00
2023-03-27T10:44:10.577Z,731.25
2023-03-27T10:45:10.603Z,680.62
2023-03-27T10:46:10.629Z,680.62
2023-03-27T10:47:10.699Z,697.50
2023-03-27T10:48:10.567Z,781.88
2023-03-27T10:49:10.560Z,1923.75
2023-03-27T10:50:10.528Z,1147.50
2023-03-27T10:51:10.521Z,787.50
2023-03-27T10:52:10.574Z,697.50
2023-03-27T10:53:10.586Z,630.00
2023-03-27T10:54:10.536Z,843.75
2023-03-27T10:55:10.466Z,1670.62
2023-03-27T10:56:10.463Z,894.38
2023-03-27T10:57:10.467Z,961.88
2023-03-27T10:58:10.422Z,978.75
2023-03-27T10:59:10.434Z,4134.38
2023-03-27T11:00:10.423Z,4050.00
2023-03-27T11:01:10.440Z,4275.00
2023-03-27T11:02:10.364Z,4089.38
2023-03-27T11:03:10.402Z,3853.12
2023-03-27T11:04:10.471Z,3723.75
2023-03-27T11:05:10.380Z,3673.12
2023-03-27T11:06:10.365Z,3476.25
2023-03-27T11:07:10.324Z,3510.00
2023-03-27T11:08:10.327Z,3718.12
2023-03-27T11:09:10.342Z,3937.50
2023-03-27T11:10:10.337Z,4151.25
2023-03-27T11:11:10.289Z,4134.38
2023-03-27T11:12:10.272Z,4235.62
2023-03-27T11:13:10.256Z,4488.75
2023-03-27T11:14:10.371Z,4741.88
2023-03-27T11:15:10.218Z,1468.12
2023-03-27T11:16:10.244Z,4584.38
2023-03-27T11:17:10.231Z,4443.75
2023-03-27T11:18:10.347Z,1816.88
2023-03-27T11:19:10.204Z,1130.62
2023-03-27T11:20:10.218Z,995.62
2023-03-27T11:21:10.159Z,2913.75
2023-03-27T11:22:10.126Z,1108.12
2023-03-27T11:23:10.160Z,4100.62
2023-03-27T11:24:10.140Z,4134.38
2023-03-27T11:25:10.149Z,1788.75
2023-03-27T11:26:10.112Z,781.88
2023-03-27T11:27:10.091Z,4561.88
2023-03-27T11:28:10.174Z,4522.50
2023-03-27T11:29:10.092Z,4516.88
2023-03-27T11:30:10.075Z,888.75
2023-03-27T11:31:12.274Z,1254.38
2023-03-27T11:32:10.025Z,1558.12
2023-03-27T11:33:10.037Z,4466.25
2023-03-27T11:34:10.035Z,4573.12
2023-03-27T11:35:10.001Z,4578.75
2023-03-27T11:36:10.055Z,3690.00
2023-03-27T11:37:09.982Z,4359.38
2023-03-27T11:38:09.967Z,4246.88
2023-03-27T11:39:10.041Z,4179.38
2023-03-27T11:40:09.956Z,4455.00
2023-03-27T11:41:09.934Z,1614.38
2023-03-27T11:42:09.955Z,832.50
2023-03-27T11:43:10.920Z,736.88
2023-03-27T11:44:09.907Z,613.12
2023-03-27T11:45:09.945Z,511.88
2023-03-27T11:46:09.948Z,860.62
2023-03-27T11:47:09.897Z,3796.88
2023-03-27T11:48:10.976Z,3774.38
2023-03-27T11:49:09.877Z,928.12
2023-03-27T11:50:09.873Z,984.38
2023-03-27T11:51:09.850Z,714.38
2023-03-27T11:52:09.845Z,776.25
2023-03-27T11:53:09.858Z,573.75
2023-03-27T11:54:09.798Z,568.12
2023-03-27T11:55:09.772Z,691.88
2023-03-27T11:56:09.815Z,4033.12
2023-03-27T11:57:09.818Z,1226.25
2023-03-27T11:58:09.776Z,1687.50
2023-03-27T11:59:09.732Z,2756.25
2023-03-27T12:00:09.776Z,2857.50
2023-03-27T12:01:09.721Z,2480.62
2023-03-27T12:02:09.729Z,4010.62
2023-03-27T12:03:09.782Z,3903.75
2023-03-27T12:04:09.730Z,3982.50
2023-03-27T12:05:09.696Z,3751.88
2023-03-27T12:06:09.702Z,3504.38
2023-03-27T12:07:12.042Z,3442.50
2023-03-27T12:08:09.675Z,877.50
2023-03-27T12:09:09.659Z,472.50
2023-03-27T12:10:09.655Z,410.62
2023-03-27T12:11:09.616Z,298.12
2023-03-27T12:12:09.641Z,247.50
2023-03-27T12:13:09.603Z,241.88
2023-03-27T12:14:17.670Z,241.88
2023-03-27T12:15:10.593Z,241.88
2023-03-27T12:16:09.584Z,236.25
2023-03-27T12:17:09.569Z,253.12
2023-03-27T12:18:09.637Z,382.50
2023-03-27T12:19:21.120Z,3526.88
2023-03-27T12:20:10.542Z,3425.62
2023-03-27T12:21:09.491Z,3391.88
2023-03-27T12:22:21.109Z,3363.75
2023-03-27T12:23:10.486Z,3436.88
2023-03-27T12:24:09.492Z,3386.25
2023-03-27T12:25:09.466Z,3240.00
2023-03-27T12:26:09.436Z,3285.00
2023-03-27T12:27:09.424Z,3268.12
2023-03-27T12:28:22.992Z,2604.38
2023-03-27T12:29:23.309Z,1074.38
2023-03-27T12:30:10.452Z,568.12
2023-03-27T12:31:09.385Z,551.25
2023-03-27T12:32:09.379Z,517.50
2023-03-27T12:33:09.395Z,517.50
2023-03-27T12:34:10.346Z,596.25
2023-03-27T12:35:09.363Z,781.88
2023-03-27T12:36:09.400Z,776.25
2023-03-27T12:37:09.342Z,826.88
2023-03-27T12:38:09.342Z,866.25
2023-03-27T12:39:09.350Z,849.38
2023-03-27T12:40:09.328Z,798.75
2023-03-27T12:41:09.334Z,725.62
2023-03-27T12:42:09.278Z,624.38
2023-03-27T12:43:09.298Z,528.75